sensor_id;sensor_type;location;lat;lon;timestamp;pressure;altitude;pressure_sealevel;temperature;humidity
75668;BME280;64266;48.798;44.756;2023-08-07T00:01:17;100857.69;;;27.27;44.98
75668;BME280;64266;48.798;44.756;2023-08-07T00:06:20;100845.56;;;27.16;45.15
75668;BME280;64266;48.798;44.756;2023-08-07T00:11:23;100858.88;;;27.09;45.74
75668;BME280;64266;48.798;44.756;2023-08-07T00:16:26;100866.56;;;26.99;46.03
75668;BME280;64266;48.798;44.756;2023-08-07T00:21:29;100852.03;;;26.86;45.77
75668;BME280;64266;48.798;44.756;2023-08-07T00:26:32;100861.00;;;26.78;46.63
75668;BME280;64266;48.798;44.756;2023-08-07T00:31:35;100849.63;;;26.67;46.44
75668;BME280;64266;48.798;44.756;2023-08-07T00:36:37;100868.06;;;26.62;46.74
75668;BME280;64266;48.798;44.756;2023-08-07T00:41:41;100858.94;;;26.49;46.86
75668;BME280;64266;48.798;44.756;2023-08-07T00:46:44;100857.66;;;26.38;46.46
75668;BME280;64266;48.798;44.756;2023-08-07T00:51:47;100839.56;;;26.33;47.28
75668;BME280;64266;48.798;44.756;2023-08-07T00:56:50;100857.03;;;26.41;47.03
75668;BME280;64266;48.798;44.756;2023-08-07T01:01:54;100861.19;;;26.38;46.79
75668;BME280;64266;48.798;44.756;2023-08-07T01:06:57;100852.72;;;26.31;47.66
75668;BME280;64266;48.798;44.756;2023-08-07T01:12:20;100809.03;;;26.02;46.70
75668;BME280;64266;48.798;44.756;2023-08-07T01:17:24;100837.34;;;26.18;47.30
75668;BME280;64266;48.798;44.756;2023-08-07T01:22:31;100834.59;;;26.10;47.63
75668;BME280;64266;48.798;44.756;2023-08-07T01:27:36;100861.97;;;26.22;47.00
75668;BME280;64266;48.798;44.756;2023-08-07T01:37:55;100851.06;;;26.13;46.98
75668;BME280;64266;48.798;44.756;2023-08-07T01:43:00;100843.84;;;26.09;46.94
75668;BME280;64266;48.798;44.756;2023-08-07T01:48:03;100862.75;;;26.14;47.04
75668;BME280;64266;48.798;44.756;2023-08-07T01:53:06;100842.28;;;25.99;46.73
75668;BME280;64266;48.798;44.756;2023-08-07T01:58:08;100845.16;;;26.11;46.53
75668;BME280;64266;48.798;44.756;2023-08-07T02:03:12;100842.59;;;26.15;45.94
75668;BME280;64266;48.798;44.756;2023-08-07T02:08:15;100842.78;;;26.18;45.52
75668;BME280;64266;48.798;44.756;2023-08-07T02:13:17;100854.00;;;26.25;45.55
75668;BME280;64266;48.798;44.756;2023-08-07T02:18:21;100836.69;;;26.21;44.63
75668;BME280;64266;48.798;44.756;2023-08-07T02:23:26;100823.28;;;26.16;44.47
75668;BME280;64266;48.798;44.756;2023-08-07T02:28:31;100840.06;;;26.35;44.01
75668;BME280;64266;48.798;44.756;2023-08-07T02:33:36;100837.66;;;26.34;43.17
75668;BME280;64266;48.798;44.756;2023-08-07T02:38:39;100827.59;;;26.34;42.98
75668;BME280;64266;48.798;44.756;2023-08-07T02:43:42;100832.56;;;26.41;42.66
75668;BME280;64266;48.798;44.756;2023-08-07T02:48:45;100833.50;;;26.54;41.94
75668;BME280;64266;48.798;44.756;2023-08-07T02:53:48;100841.63;;;26.71;42.14
75668;BME280;64266;48.798;44.756;2023-08-07T02:58:50;100843.25;;;26.80;41.43
75668;BME280;64266;48.798;44.756;2023-08-07T03:03:53;100850.44;;;26.93;41.37
75668;BME280;64266;48.798;44.756;2023-08-07T03:08:55;100844.16;;;27.02;41.22
75668;BME280;64266;48.798;44.756;2023-08-07T03:13:58;100850.03;;;27.21;40.24
75668;BME280;64266;48.798;44.756;2023-08-07T03:19:00;100825.00;;;27.27;40.10
75668;BME280;64266;48.798;44.756;2023-08-07T03:24:04;100837.34;;;27.63;39.43
75668;BME280;64266;48.798;44.756;2023-08-07T03:29:08;100824.38;;;28.30;37.84
75668;BME280;64266;48.798;44.756;2023-08-07T03:34:12;100843.28;;;29.46;36.30
75668;BME280;64266;48.798;44.756;2023-08-07T03:39:15;100828.69;;;30.18;34.53
75668;BME280;64266;48.798;44.756;2023-08-07T03:44:18;100828.53;;;30.94;32.78
75668;BME280;64266;48.798;44.756;2023-08-07T03:49:22;100843.00;;;31.57;32.18
75668;BME280;64266;48.798;44.756;2023-08-07T03:54:26;100827.06;;;32.33;30.79
75668;BME280;64266;48.798;44.756;2023-08-07T03:59:29;100812.84;;;32.92;29.29
75668;BME280;64266;48.798;44.756;2023-08-07T04:04:32;100842.09;;;33.71;28.84
75668;BME280;64266;48.798;44.756;2023-08-07T04:09:35;100841.78;;;34.36;27.76
75668;BME280;64266;48.798;44.756;2023-08-07T04:14:38;100840.56;;;35.04;27.29
75668;BME280;64266;48.798;44.756;2023-08-07T04:19:41;100820.47;;;35.54;27.21
75668;BME280;64266;48.798;44.756;2023-08-07T04:24:44;100825.06;;;35.98;25.16
75668;BME280;64266;48.798;44.756;2023-08-07T04:29:47;100837.44;;;36.28;24.73
75668;BME280;64266;48.798;44.756;2023-08-07T04:34:49;100847.34;;;36.36;24.88
75668;BME280;64266;48.798;44.756;2023-08-07T04:39:53;100838.41;;;36.78;24.69
75668;BME280;64266;48.798;44.756;2023-08-07T04:44:56;100822.66;;;37.04;24.06
75668;BME280;64266;48.798;44.756;2023-08-07T04:49:59;100834.09;;;37.44;24.18
75668;BME280;64266;48.798;44.756;2023-08-07T04:55:04;100837.97;;;37.89;23.00
75668;BME280;64266;48.798;44.756;2023-08-07T05:00:08;100830.75;;;38.13;22.51
75668;BME280;64266;48.798;44.756;2023-08-07T05:05:11;100833.78;;;38.47;22.78
75668;BME280;64266;48.798;44.756;2023-08-07T05:10:14;100833.75;;;38.54;21.88
75668;BME280;64266;48.798;44.756;2023-08-07T05:15:17;100822.97;;;38.67;22.30
75668;BME280;64266;48.798;44.756;2023-08-07T05:20:20;100823.25;;;38.86;21.52
75668;BME280;64266;48.798;44.756;2023-08-07T05:25:23;100818.03;;;38.95;21.28
75668;BME280;64266;48.798;44.756;2023-08-07T05:30:26;100801.59;;;39.19;21.75
75668;BME280;64266;48.798;44.756;2023-08-07T05:35:29;100799.56;;;39.23;21.76
75668;BME280;64266;48.798;44.756;2023-08-07T05:40:31;100806.72;;;39.24;21.81
75668;BME280;64266;48.798;44.756;2023-08-07T05:45:35;100803.66;;;39.52;21.19
75668;BME280;64266;48.798;44.756;2023-08-07T05:50:39;100800.41;;;39.57;21.68
75668;BME280;64266;48.798;44.756;2023-08-07T05:55:42;100791.66;;;39.96;20.90
75668;BME280;64266;48.798;44.756;2023-08-07T06:00:45;100782.50;;;39.99;20.71
75668;BME280;64266;48.798;44.756;2023-08-07T06:05:48;100786.06;;;40.30;20.11
75668;BME280;64266;48.798;44.756;2023-08-07T06:10:51;100779.19;;;40.07;20.52
75668;BME280;64266;48.798;44.756;2023-08-07T06:15:54;100786.41;;;40.01;20.65
75668;BME280;64266;48.798;44.756;2023-08-07T06:20:57;100768.41;;;39.83;21.14
75668;BME280;64266;48.798;44.756;2023-08-07T06:26:00;100761.66;;;40.14;20.77
75668;BME280;64266;48.798;44.756;2023-08-07T06:31:09;100757.91;;;40.54;20.52
75668;BME280;64266;48.798;44.756;2023-08-07T06:36:12;100734.22;;;40.43;20.30
75668;BME280;64266;48.798;44.756;2023-08-07T06:41:14;100737.53;;;40.61;20.47
75668;BME280;64266;48.798;44.756;2023-08-07T06:46:17;100745.22;;;40.50;20.88
75668;BME280;64266;48.798;44.756;2023-08-07T06:51:21;100722.97;;;40.27;20.46
75668;BME280;64266;48.798;44.756;2023-08-07T06:56:24;100764.94;;;40.36;20.37
75668;BME280;64266;48.798;44.756;2023-08-07T07:01:32;100739.66;;;40.53;21.03
75668;BME280;64266;48.798;44.756;2023-08-07T07:06:37;100730.94;;;40.51;20.68
75668;BME280;64266;48.798;44.756;2023-08-07T07:11:39;100722.53;;;40.78;20.48
75668;BME280;64266;48.798;44.756;2023-08-07T07:16:42;100734.28;;;40.66;20.75
75668;BME280;64266;48.798;44.756;2023-08-07T07:21:46;100735.59;;;40.58;20.36
75668;BME280;64266;48.798;44.756;2023-08-07T07:26:49;100679.69;;;40.49;20.41
75668;BME280;64266;48.798;44.756;2023-08-07T07:31:51;100716.97;;;40.55;20.86
75668;BME280;64266;48.798;44.756;2023-08-07T07:36:58;100718.59;;;40.52;20.52
75668;BME280;64266;48.798;44.756;2023-08-07T07:42:01;100721.34;;;40.29;21.19
75668;BME280;64266;48.798;44.756;2023-08-07T07:47:07;100707.03;;;40.00;21.41
75668;BME280;64266;48.798;44.756;2023-08-07T07:52:26;100689.34;;;39.57;21.48
75668;BME280;64266;48.798;44.756;2023-08-07T07:57:31;100714.25;;;39.30;22.09
75668;BME280;64266;48.798;44.756;2023-08-07T08:02:33;100727.16;;;39.10;22.54
75668;BME280;64266;48.798;44.756;2023-08-07T08:07:37;100719.50;;;38.73;22.77
75668;BME280;64266;48.798;44.756;2023-08-07T08:12:42;100703.19;;;38.31;22.84
75668;BME280;64266;48.798;44.756;2023-08-07T08:17:48;100708.75;;;38.27;23.03
75668;BME280;64266;48.798;44.756;2023-08-07T08:22:54;100702.66;;;37.88;22.95
75668;BME280;64266;48.798;44.756;2023-08-07T08:27:57;100706.34;;;37.60;23.42
75668;BME280;64266;48.798;44.756;2023-08-07T08:33:00;100699.69;;;37.40;24.01
75668;BME280;64266;48.798;44.756;2023-08-07T08:38:03;100678.00;;;37.14;23.84
75668;BME280;64266;48.798;44.756;2023-08-07T08:43:06;100690.66;;;37.15;23.71
75668;BME280;64266;48.798;44.756;2023-08-07T08:48:13;100676.84;;;36.93;24.06
75668;BME280;64266;48.798;44.756;2023-08-07T08:53:24;100663.81;;;36.76;24.00
75668;BME280;64266;48.798;44.756;2023-08-07T08:58:28;100676.06;;;36.89;24.29
75668;BME280;64266;48.798;44.756;2023-08-07T09:03:32;100673.69;;;36.91;23.73
75668;BME280;64266;48.798;44.756;2023-08-07T09:08:36;100661.84;;;36.87;24.56
75668;BME280;64266;48.798;44.756;2023-08-07T09:13:41;100676.88;;;37.01;23.47
75668;BME280;64266;48.798;44.756;2023-08-07T09:18:46;100671.72;;;36.99;24.07
75668;BME280;64266;48.798;44.756;2023-08-07T09:23:51;100654.75;;;36.79;24.05
75668;BME280;64266;48.798;44.756;2023-08-07T09:28:54;100657.91;;;36.85;24.15
75668;BME280;64266;48.798;44.756;2023-08-07T09:34:02;100644.88;;;36.71;24.02
75668;BME280;64266;48.798;44.756;2023-08-07T09:39:06;100653.19;;;36.82;23.83
75668;BME280;64266;48.798;44.756;2023-08-07T09:44:11;100653.94;;;36.86;24.45
75668;BME280;64266;48.798;44.756;2023-08-07T09:49:15;100648.81;;;36.91;23.30
75668;BME280;64266;48.798;44.756;2023-08-07T09:54:22;100646.44;;;36.86;23.84
75668;BME280;64266;48.798;44.756;2023-08-07T09:59:27;100658.28;;;36.83;23.99
75668;BME280;64266;48.798;44.756;2023-08-07T10:04:32;100648.41;;;36.86;23.45
75668;BME280;64266;48.798;44.756;2023-08-07T10:09:35;100638.94;;;36.83;23.13
75668;BME280;64266;48.798;44.756;2023-08-07T10:14:40;100632.22;;;36.84;23.64
75668;BME280;64266;48.798;44.756;2023-08-07T10:19:45;100638.13;;;36.93;23.17
75668;BME280;64266;48.798;44.756;2023-08-07T10:24:50;100621.59;;;36.72;23.15
75668;BME280;64266;48.798;44.756;2023-08-07T10:29:56;100635.00;;;36.74;23.51
75668;BME280;64266;48.798;44.756;2023-08-07T10:35:03;100625.94;;;36.59;23.54
75668;BME280;64266;48.798;44.756;2023-08-07T10:40:12;100602.25;;;36.51;23.12
75668;BME280;64266;48.798;44.756;2023-08-07T10:51:08;100543.84;;;36.24;23.47
75668;BME280;64266;48.798;44.756;2023-08-07T10:56:35;100627.09;;;36.83;22.74
75668;BME280;64266;48.798;44.756;2023-08-07T11:01:53;100623.56;;;36.72;23.46
75668;BME280;64266;48.798;44.756;2023-08-07T11:07:23;100618.03;;;36.65;22.66
75668;BME280;64266;48.798;44.756;2023-08-07T11:12:28;100610.13;;;36.70;23.23
75668;BME280;64266;48.798;44.756;2023-08-07T11:17:31;100614.50;;;36.64;23.02
75668;BME280;64266;48.798;44.756;2023-08-07T11:22:42;100597.94;;;36.57;23.16
75668;BME280;64266;48.798;44.756;2023-08-07T11:27:48;100584.50;;;36.45;22.40
75668;BME280;64266;48.798;44.756;2023-08-07T11:32:52;100605.44;;;36.53;22.51
75668;BME280;64266;48.798;44.756;2023-08-07T11:37:58;100603.44;;;36.64;22.25
75668;BME280;64266;48.798;44.756;2023-08-07T11:49:52;100602.22;;;36.79;22.24
75668;BME280;64266;48.798;44.756;2023-08-07T11:54:58;100585.69;;;36.58;22.54
75668;BME280;64266;48.798;44.756;2023-08-07T12:00:09;100605.41;;;36.67;22.45
75668;BME280;64266;48.798;44.756;2023-08-07T12:05:17;100603.84;;;36.66;22.21
75668;BME280;64266;48.798;44.756;2023-08-07T12:10:22;100591.63;;;36.53;23.04
75668;BME280;64266;48.798;44.756;2023-08-07T12:15:28;100590.00;;;36.49;22.17
75668;BME280;64266;48.798;44.756;2023-08-07T12:20:32;100587.25;;;36.45;22.65
75668;BME280;64266;48.798;44.756;2023-08-07T12:25:42;100581.72;;;36.27;23.09
75668;BME280;64266;48.798;44.756;2023-08-07T12:30:48;100581.72;;;36.34;23.09
75668;BME280;64266;48.798;44.756;2023-08-07T12:35:52;100587.25;;;36.34;22.83
75668;BME280;64266;48.798;44.756;2023-08-07T12:40:56;100587.66;;;36.40;22.43
75668;BME280;64266;48.798;44.756;2023-08-07T12:46:06;100586.09;;;36.35;23.03
75668;BME280;64266;48.798;44.756;2023-08-07T12:51:12;100563.59;;;36.05;23.23
75668;BME280;64266;48.798;44.756;2023-08-07T12:56:50;100580.09;;;35.87;23.26
75668;BME280;64266;48.798;44.756;2023-08-07T13:02:07;100544.94;;;35.46;23.48
75668;BME280;64266;48.798;44.756;2023-08-07T13:07:12;100580.47;;;35.65;23.44
75668;BME280;64266;48.798;44.756;2023-08-07T13:12:15;100569.88;;;35.77;23.27
75668;BME280;64266;48.798;44.756;2023-08-07T13:17:18;100571.81;;;35.84;23.14
75668;BME280;64266;48.798;44.756;2023-08-07T13:22:22;100552.09;;;35.75;22.45
75668;BME280;64266;48.798;44.756;2023-08-07T13:27:24;100583.69;;;35.99;23.11
75668;BME280;64266;48.798;44.756;2023-08-07T13:32:33;100552.88;;;35.75;22.86
75668;BME280;64266;48.798;44.756;2023-08-07T13:37:36;100537.50;;;35.60;22.99
75668;BME280;64266;48.798;44.756;2023-08-07T13:42:40;100562.38;;;35.74;23.16
75668;BME280;64266;48.798;44.756;2023-08-07T13:47:44;100548.16;;;35.72;22.52
75668;BME280;64266;48.798;44.756;2023-08-07T13:52:49;100478.72;;;35.31;22.91
75668;BME280;64266;48.798;44.756;2023-08-07T13:58:09;100534.38;;;35.65;22.96
75668;BME280;64266;48.798;44.756;2023-08-07T14:03:13;100545.00;;;35.70;22.35
75668;BME280;64266;48.798;44.756;2023-08-07T14:08:17;100537.50;;;35.64;22.41
75668;BME280;64266;48.798;44.756;2023-08-07T14:13:20;100550.50;;;35.60;22.77
75668;BME280;64266;48.798;44.756;2023-08-07T14:18:24;100533.50;;;35.54;21.97
75668;BME280;64266;48.798;44.756;2023-08-07T14:23:27;100531.94;;;35.46;22.51
75668;BME280;64266;48.798;44.756;2023-08-07T14:28:33;100545.34;;;35.51;22.67
75668;BME280;64266;48.798;44.756;2023-08-07T14:33:38;100536.25;;;35.51;21.60
75668;BME280;64266;48.798;44.756;2023-08-07T14:38:42;100518.91;;;35.36;21.83
75668;BME280;64266;48.798;44.756;2023-08-07T14:43:45;100533.84;;;35.35;22.38
75668;BME280;64266;48.798;44.756;2023-08-07T14:48:49;100533.44;;;35.22;21.77
75668;BME280;64266;48.798;44.756;2023-08-07T14:53:52;100536.19;;;35.19;22.10
75668;BME280;64266;48.798;44.756;2023-08-07T14:58:55;100544.47;;;35.19;22.34
75668;BME280;64266;48.798;44.756;2023-08-07T15:04:01;100534.94;;;35.06;21.81
75668;BME280;64266;48.798;44.756;2023-08-07T15:09:04;100533.75;;;35.03;22.07
75668;BME280;64266;48.798;44.756;2023-08-07T15:14:08;100533.31;;;35.01;21.54
75668;BME280;64266;48.798;44.756;2023-08-07T15:19:10;100540.00;;;34.97;21.36
75668;BME280;64266;48.798;44.756;2023-08-07T15:24:13;100529.38;;;34.92;21.68
75668;BME280;64266;48.798;44.756;2023-08-07T15:29:17;100551.75;;;34.87;21.56
75668;BME280;64266;48.798;44.756;2023-08-07T15:34:21;100516.22;;;34.60;22.11
75668;BME280;64266;48.798;44.756;2023-08-07T15:39:24;100533.91;;;34.59;22.04
75668;BME280;64266;48.798;44.756;2023-08-07T15:44:27;100539.75;;;34.54;22.06
75668;BME280;64266;48.798;44.756;2023-08-07T15:49:30;100536.13;;;34.43;22.26
75668;BME280;64266;48.798;44.756;2023-08-07T15:54:33;100530.88;;;34.20;22.44
75668;BME280;64266;48.798;44.756;2023-08-07T15:59:35;100560.00;;;34.25;22.66
75668;BME280;64266;48.798;44.756;2023-08-07T16:04:39;100548.00;;;34.03;22.81
75668;BME280;64266;48.798;44.756;2023-08-07T16:09:42;100545.16;;;33.93;22.86
75668;BME280;64266;48.798;44.756;2023-08-07T16:14:46;100564.75;;;33.88;22.91
75668;BME280;64266;48.798;44.756;2023-08-07T16:19:51;100550.84;;;33.70;23.13
75668;BME280;64266;48.798;44.756;2023-08-07T16:24:54;100565.75;;;33.65;23.09
75668;BME280;64266;48.798;44.756;2023-08-07T16:29:57;100559.00;;;33.59;23.47
75668;BME280;64266;48.798;44.756;2023-08-07T16:35:08;100548.19;;;33.44;23.25
75668;BME280;64266;48.798;44.756;2023-08-07T16:40:11;100584.00;;;33.51;23.54
75668;BME280;64266;48.798;44.756;2023-08-07T16:45:14;100578.75;;;33.39;23.59
75668;BME280;64266;48.798;44.756;2023-08-07T16:50:18;100588.84;;;33.28;23.77
75668;BME280;64266;48.798;44.756;2023-08-07T16:55:21;100586.34;;;33.15;23.65
75668;BME280;64266;48.798;44.756;2023-08-07T17:00:24;100562.09;;;32.95;23.78
75668;BME280;64266;48.798;44.756;2023-08-07T17:05:28;100583.75;;;33.00;23.57
75668;BME280;64266;48.798;44.756;2023-08-07T17:10:32;100597.81;;;32.95;23.66
75668;BME280;64266;48.798;44.756;2023-08-07T17:15:36;100578.25;;;32.73;23.45
75668;BME280;64266;48.798;44.756;2023-08-07T17:20:40;100597.59;;;32.81;23.89
75668;BME280;64266;48.798;44.756;2023-08-07T17:25:43;100606.13;;;32.72;24.22
75668;BME280;64266;48.798;44.756;2023-08-07T17:30:46;100592.88;;;32.55;24.26
75668;BME280;64266;48.798;44.756;2023-08-07T17:35:49;100597.81;;;32.46;24.81
75668;BME280;64266;48.798;44.756;2023-08-07T17:40:52;100617.00;;;32.42;24.84
75668;BME280;64266;48.798;44.756;2023-08-07T17:45:55;100596.59;;;32.17;25.28
75668;BME280;64266;48.798;44.756;2023-08-07T17:50:58;100611.78;;;32.11;25.04
75668;BME280;64266;48.798;44.756;2023-08-07T17:56:01;100614.72;;;32.02;25.85
75668;BME280;64266;48.798;44.756;2023-08-07T18:01:04;100599.03;;;31.80;26.07
75668;BME280;64266;48.798;44.756;2023-08-07T18:06:08;100602.06;;;31.75;25.78
75668;BME280;64266;48.798;44.756;2023-08-07T18:11:11;100606.56;;;31.64;26.48
75668;BME280;64266;48.798;44.756;2023-08-07T18:16:15;100606.34;;;31.53;27.04
75668;BME280;64266;48.798;44.756;2023-08-07T18:21:19;100588.72;;;31.35;26.75
75668;BME280;64266;48.798;44.756;2023-08-07T18:26:22;100608.69;;;31.36;27.04
75668;BME280;64266;48.798;44.756;2023-08-07T18:31:25;100605.22;;;31.20;27.57
75668;BME280;64266;48.798;44.756;2023-08-07T18:36:32;100608.31;;;31.18;27.48
75668;BME280;64266;48.798;44.756;2023-08-07T18:41:36;100612.09;;;31.10;27.27
75668;BME280;64266;48.798;44.756;2023-08-07T18:46:39;100605.28;;;31.04;27.61
75668;BME280;64266;48.798;44.756;2023-08-07T18:51:41;100609.19;;;31.03;27.53
75668;BME280;64266;48.798;44.756;2023-08-07T18:56:49;100617.31;;;30.99;27.46
75668;BME280;64266;48.798;44.756;2023-08-07T19:01:52;100606.53;;;30.91;27.54
75668;BME280;64266;48.798;44.756;2023-08-07T19:06:55;100607.16;;;30.84;27.93
75668;BME280;64266;48.798;44.756;2023-08-07T19:11:58;100595.19;;;30.73;27.64
75668;BME280;64266;48.798;44.756;2023-08-07T19:17:01;100590.13;;;30.75;27.77
75668;BME280;64266;48.798;44.756;2023-08-07T19:22:09;100607.78;;;30.78;27.90
75668;BME280;64266;48.798;44.756;2023-08-07T19:27:12;100596.66;;;30.71;27.73
75668;BME280;64266;48.798;44.756;2023-08-07T19:32:14;100601.38;;;30.70;28.12
75668;BME280;64266;48.798;44.756;2023-08-07T19:37:18;100604.28;;;30.61;28.16
75668;BME280;64266;48.798;44.756;2023-08-07T19:42:21;100597.94;;;30.42;28.47
75668;BME280;64266;48.798;44.756;2023-08-07T19:47:24;100601.03;;;30.40;28.73
75668;BME280;64266;48.798;44.756;2023-08-07T19:52:37;100609.31;;;30.28;28.72
75668;BME280;64266;48.798;44.756;2023-08-07T19:57:40;100599.94;;;30.14;29.05
75668;BME280;64266;48.798;44.756;2023-08-07T20:02:43;100602.22;;;29.96;28.44
75668;BME280;64266;48.798;44.756;2023-08-07T20:07:46;100598.50;;;29.88;28.34
75668;BME280;64266;48.798;44.756;2023-08-07T20:12:50;100607.78;;;29.84;28.62
75668;BME280;64266;48.798;44.756;2023-08-07T20:17:54;100603.22;;;29.76;28.16
75668;BME280;64266;48.798;44.756;2023-08-07T20:22:57;100591.69;;;29.54;28.50
75668;BME280;64266;48.798;44.756;2023-08-07T20:28:00;100590.03;;;29.50;28.19
75668;BME280;64266;48.798;44.756;2023-08-07T20:33:03;100592.69;;;29.34;28.91
75668;BME280;64266;48.798;44.756;2023-08-07T20:38:07;100585.09;;;29.28;28.62
75668;BME280;64266;48.798;44.756;2023-08-07T20:43:12;100612.50;;;29.31;28.65
75668;BME280;64266;48.798;44.756;2023-08-07T20:48:15;100611.03;;;29.22;28.48
75668;BME280;64266;48.798;44.756;2023-08-07T20:53:20;100593.31;;;29.03;28.71
75668;BME280;64266;48.798;44.756;2023-08-07T20:58:23;100622.19;;;29.17;28.08
75668;BME280;64266;48.798;44.756;2023-08-07T21:03:26;100598.34;;;28.89;28.43
75668;BME280;64266;48.798;44.756;2023-08-07T21:08:29;100614.03;;;28.92;28.89
75668;BME280;64266;48.798;44.756;2023-08-07T21:13:31;100618.13;;;28.86;28.85
75668;BME280;64266;48.798;44.756;2023-08-07T21:18:38;100627.56;;;28.89;28.73
75668;BME280;64266;48.798;44.756;2023-08-07T21:23:41;100597.22;;;28.66;28.72
75668;BME280;64266;48.798;44.756;2023-08-07T21:28:44;100627.38;;;28.82;29.15
75668;BME280;64266;48.798;44.756;2023-08-07T21:33:47;100627.38;;;28.70;29.07
75668;BME280;64266;48.798;44.756;2023-08-07T21:38:50;100612.41;;;28.55;29.56
75668;BME280;64266;48.798;44.756;2023-08-07T21:43:54;100629.03;;;28.62;29.73
75668;BME280;64266;48.798;44.756;2023-08-07T21:48:58;100596.97;;;28.35;29.77
75668;BME280;64266;48.798;44.756;2023-08-07T21:54:02;100606.28;;;28.34;29.76
75668;BME280;64266;48.798;44.756;2023-08-07T21:59:05;100612.53;;;28.34;30.17
75668;BME280;64266;48.798;44.756;2023-08-07T22:04:08;100604.00;;;28.24;30.05
75668;BME280;64266;48.798;44.756;2023-08-07T22:09:12;100623.09;;;28.24;30.59
75668;BME280;64266;48.798;44.756;2023-08-07T22:14:15;100595.28;;;27.97;30.87
75668;BME280;64266;48.798;44.756;2023-08-07T22:19:18;100616.09;;;28.02;30.59
75668;BME280;64266;48.798;44.756;2023-08-07T22:24:22;100600.72;;;27.85;30.65
75668;BME280;64266;48.798;44.756;2023-08-07T22:29:25;100558.91;;;27.49;31.11
75668;BME280;64266;48.798;44.756;2023-08-07T22:34:29;100611.84;;;27.80;31.32
75668;BME280;64266;48.798;44.756;2023-08-07T22:39:32;100615.53;;;27.76;31.23
75668;BME280;64266;48.798;44.756;2023-08-07T22:44:34;100604.16;;;27.62;31.93
75668;BME280;64266;48.798;44.756;2023-08-07T22:49:37;100619.34;;;27.63;31.40
75668;BME280;64266;48.798;44.756;2023-08-07T22:54:41;100600.72;;;27.53;31.55
75668;BME280;64266;48.798;44.756;2023-08-07T22:59:44;100606.63;;;27.55;31.50
75668;BME280;64266;48.798;44.756;2023-08-07T23:04:47;100609.88;;;27.48;31.41
75668;BME280;64266;48.798;44.756;2023-08-07T23:09:50;100607.41;;;27.34;31.87
75668;BME280;64266;48.798;44.756;2023-08-07T23:14:52;100609.78;;;27.36;31.77
75668;BME280;64266;48.798;44.756;2023-08-07T23:19:55;100586.53;;;27.18;31.95
75668;BME280;64266;48.798;44.756;2023-08-07T23:24:58;100593.53;;;27.07;32.98
75668;BME280;64266;48.798;44.756;2023-08-07T23:35:22;100608.56;;;27.04;33.96
75668;BME280;64266;48.798;44.756;2023-08-07T23:40:27;100603.84;;;26.92;34.13
75668;BME280;64266;48.798;44.756;2023-08-07T23:45:30;100617.81;;;26.91;34.22
75668;BME280;64266;48.798;44.756;2023-08-07T23:50:33;100620.25;;;26.84;34.09
75668;BME280;64266;48.798;44.756;2023-08-07T23:55:36;100592.63;;;26.65;34.10
